createdAt,value
2017-10-16T00:02:01.966Z,72.36
2017-10-16T00:04:30.347Z,73.28
2017-10-16T00:06:58.681Z,72.89
2017-10-16T00:09:27.034Z,72.45
2017-10-16T00:11:55.645Z,72.77
2017-10-16T00:14:23.983Z,73.01
2017-10-16T00:16:52.340Z,72.99
2017-10-16T00:19:20.706Z,73.45
2017-10-16T00:21:49.044Z,73.41
2017-10-16T00:24:17.390Z,73.33
2017-10-16T00:26:46.410Z,72.99
2017-10-16T00:29:14.807Z,72.83
2017-10-16T00:31:43.173Z,72.72
2017-10-16T00:34:12.613Z,72.32
2017-10-16T00:36:40.974Z,72.15
2017-10-16T00:39:10.104Z,71.95
2017-10-16T00:41:38.491Z,71.68
2017-10-16T00:44:06.849Z,71.79
2017-10-16T00:46:35.218Z,71.82
2017-10-16T00:49:03.686Z,71.42
2017-10-16T00:51:32.786Z,71.30
2017-10-16T00:54:01.119Z,71.18
2017-10-16T00:56:29.545Z,71.38
2017-10-16T00:58:57.930Z,71.71
2017-10-16T01:01:27.029Z,71.50
2017-10-16T01:03:56.185Z,71.42
2017-10-16T01:06:24.539Z,71.53
2017-10-16T01:08:52.882Z,71.63
2017-10-16T01:11:22.051Z,71.75
2017-10-16T01:13:50.393Z,72.07
2017-10-16T01:16:18.723Z,72.06
2017-10-16T01:18:48.338Z,71.66
2017-10-16T01:21:16.803Z,71.37
2017-10-16T01:23:45.161Z,71.49
2017-10-16T01:26:13.537Z,71.30
2017-10-16T01:28:41.890Z,71.00
2017-10-16T01:31:10.243Z,70.91
2017-10-16T01:33:39.679Z,70.61
2017-10-16T01:36:08.013Z,70.83
2017-10-16T01:38:36.341Z,70.91
2017-10-16T01:41:04.776Z,70.72
2017-10-16T01:43:33.878Z,71.21
2017-10-16T01:46:03.014Z,71.69
2017-10-16T01:48:31.376Z,71.31
2017-10-16T01:50:59.730Z,71.59
2017-10-16T01:53:28.854Z,71.20
2017-10-16T01:55:57.222Z,71.00
2017-10-16T01:58:26.334Z,71.65
2017-10-16T02:00:54.683Z,72.26
2017-10-16T02:03:23.984Z,71.50
2017-10-16T02:05:53.110Z,71.05
2017-10-16T02:08:21.456Z,71.59
2017-10-16T02:10:49.836Z,71.39
2017-10-16T02:13:19.251Z,71.90
2017-10-16T02:15:47.600Z,71.99
2017-10-16T02:18:16.737Z,71.91
2017-10-16T02:20:45.073Z,72.24
2017-10-16T02:23:13.395Z,71.70
2017-10-16T02:25:42.349Z,72.16
2017-10-16T02:28:10.781Z,72.32
2017-10-16T02:30:39.117Z,72.70
2017-10-16T02:33:07.482Z,72.51
2017-10-16T02:35:35.858Z,72.36
2017-10-16T02:38:04.211Z,71.89
2017-10-16T02:40:32.645Z,71.64
2017-10-16T02:43:01.748Z,72.08
2017-10-16T02:45:30.881Z,72.69
2017-10-16T02:47:59.383Z,72.82
2017-10-16T02:50:27.713Z,72.77
2017-10-16T02:52:56.087Z,73.10
2017-10-16T02:55:25.255Z,73.00
2017-10-16T02:57:53.602Z,72.68
2017-10-16T03:00:21.945Z,72.09
2017-10-16T03:02:51.119Z,72.24
2017-10-16T03:05:19.470Z,72.01
2017-10-16T03:07:47.830Z,72.20
2017-10-16T03:10:16.277Z,72.11
2017-10-16T03:12:46.349Z,72.32
2017-10-16T03:15:15.451Z,72.16
2017-10-16T03:17:43.805Z,72.17
2017-10-16T03:20:12.231Z,72.53
2017-10-16T03:22:41.353Z,72.54
2017-10-16T03:25:10.485Z,72.21
2017-10-16T03:27:38.830Z,72.93
2017-10-16T03:30:07.185Z,72.67
2017-10-16T03:32:36.402Z,72.98
2017-10-16T03:35:05.131Z,72.77
2017-10-16T03:37:33.532Z,72.48
2017-10-16T03:40:01.899Z,72.88
2017-10-16T03:42:30.724Z,73.18
2017-10-16T03:44:59.061Z,73.22
2017-10-16T03:47:27.430Z,74.20
2017-10-16T03:49:56.637Z,74.47
2017-10-16T03:52:24.974Z,74.24
2017-10-16T03:54:54.986Z,74.61
2017-10-16T03:57:24.078Z,74.91
2017-10-16T03:59:52.412Z,75.03
2017-10-16T04:02:20.782Z,75.05
2017-10-16T04:04:49.118Z,74.23
2017-10-16T04:07:18.226Z,74.24
2017-10-16T04:09:46.595Z,74.03
2017-10-16T04:12:15.719Z,74.14
2017-10-16T04:14:44.151Z,74.55
2017-10-16T04:17:12.795Z,74.95
2017-10-16T04:19:41.188Z,74.35
2017-10-16T04:22:09.597Z,74.39
2017-10-16T04:24:38.024Z,74.77
2017-10-16T04:27:06.410Z,75.17
2017-10-16T04:29:35.647Z,74.67
2017-10-16T04:32:04.015Z,74.89
2017-10-16T04:34:32.354Z,74.00
2017-10-16T04:37:00.837Z,74.17
2017-10-16T04:39:29.480Z,74.09
2017-10-16T04:41:57.858Z,74.93
2017-10-16T04:44:26.187Z,75.01
2017-10-16T04:46:54.559Z,74.62
2017-10-16T04:49:22.970Z,74.70
2017-10-16T04:51:51.349Z,74.22
2017-10-16T04:54:19.875Z,74.11
2017-10-16T04:56:49.144Z,74.11
2017-10-16T04:59:17.511Z,74.36
2017-10-16T05:01:46.262Z,74.43
2017-10-16T05:04:14.604Z,74.72
2017-10-16T05:06:42.970Z,74.74
2017-10-16T05:09:11.386Z,75.08
2017-10-16T05:11:39.811Z,75.15
2017-10-16T05:14:08.230Z,74.99
2017-10-16T05:16:36.674Z,74.93
2017-10-16T05:19:05.090Z,74.53
2017-10-16T05:21:34.283Z,74.79
2017-10-16T05:24:02.872Z,74.66
2017-10-16T05:26:31.351Z,74.77
2017-10-16T05:28:59.732Z,74.23
2017-10-16T05:31:28.106Z,74.77
2017-10-16T05:33:56.462Z,74.77
2017-10-16T05:36:24.862Z,75.36
2017-10-16T05:38:53.522Z,75.33
2017-10-16T05:41:21.879Z,75.47
2017-10-16T05:43:50.258Z,76.00
2017-10-16T16:01:01.475Z,60.84
2017-10-16T16:03:30.602Z,59.03
2017-10-16T16:05:58.983Z,58.28
2017-10-16T16:08:27.373Z,57.91
2017-10-16T16:10:55.738Z,58.29
2017-10-16T16:13:24.088Z,58.47
2017-10-16T16:15:53.219Z,58.76
2017-10-16T16:18:21.577Z,59.07
2017-10-16T16:20:49.927Z,59.63
2017-10-16T16:23:18.441Z,60.48
2017-10-16T16:25:47.553Z,60.93
2017-10-16T16:28:15.890Z,60.63
2017-10-16T16:30:44.279Z,60.76
2017-10-16T16:33:13.370Z,60.83
2017-10-16T16:35:42.508Z,60.88
2017-10-16T16:38:10.872Z,61.91
2017-10-16T16:40:39.224Z,62.64
2017-10-16T16:43:08.476Z,62.88
2017-10-16T16:45:36.910Z,63.46
2017-10-16T16:48:05.253Z,64.04
2017-10-16T16:50:33.623Z,64.64
2017-10-16T16:53:02.778Z,64.62
2017-10-16T16:55:31.204Z,65.25
2017-10-16T16:57:59.569Z,65.92
2017-10-16T17:00:27.927Z,65.85
2017-10-16T17:02:56.293Z,66.06
2017-10-16T17:05:24.649Z,65.98
2017-10-16T17:07:53.196Z,66.16
2017-10-16T17:10:21.543Z,66.04
2017-10-16T17:12:49.911Z,66.47
2017-10-16T17:15:19.085Z,65.98
2017-10-16T17:17:47.474Z,66.02
2017-10-16T17:20:15.817Z,65.87
2017-10-16T17:22:44.181Z,65.81
2017-10-16T17:25:12.522Z,65.74
2017-10-16T17:27:41.655Z,66.02
2017-10-16T17:30:10.174Z,66.03
2017-10-16T17:32:38.559Z,66.49
2017-10-16T17:35:06.913Z,66.28
2017-10-16T17:37:35.271Z,67.34
2017-10-16T17:40:03.966Z,67.22
2017-10-16T17:42:32.313Z,67.80
2017-10-16T17:45:01.474Z,67.43
2017-10-16T17:47:29.844Z,67.23
2017-10-16T17:49:58.197Z,67.85
2017-10-16T17:52:27.532Z,67.99
2017-10-16T17:54:55.894Z,67.76
2017-10-16T17:57:24.266Z,67.97
2017-10-16T17:59:52.658Z,67.93
2017-10-16T18:02:21.002Z,67.82
2017-10-16T18:04:49.358Z,68.17
2017-10-16T18:07:18.523Z,68.78
2017-10-16T18:09:46.858Z,68.24
2017-10-16T18:12:15.230Z,68.43
2017-10-16T18:14:44.742Z,68.76
2017-10-16T18:17:13.106Z,69.35
2017-10-16T18:19:42.217Z,69.56
2017-10-16T18:22:10.615Z,69.43
2017-10-16T18:24:38.975Z,69.41
2017-10-16T18:27:07.321Z,69.42
2017-10-16T18:29:35.731Z,69.13
2017-10-16T18:32:04.110Z,70.30
2017-10-16T18:34:32.451Z,71.06
2017-10-16T18:37:01.276Z,71.24
2017-10-16T18:39:30.387Z,71.62
2017-10-16T18:41:58.764Z,71.38
2017-10-16T18:44:27.119Z,70.62
2017-10-16T18:46:55.474Z,71.02
2017-10-16T18:49:23.804Z,70.65
2017-10-16T18:51:52.181Z,70.06
2017-10-16T18:54:20.621Z,70.40
2017-10-16T18:56:48.997Z,70.50
2017-10-16T18:59:18.265Z,71.13
2017-10-16T19:01:46.635Z,71.65
2017-10-16T19:04:15.037Z,70.71
2017-10-16T19:06:43.397Z,70.83
2017-10-16T19:09:11.743Z,70.41
2017-10-16T19:11:40.877Z,70.09
2017-10-16T19:14:09.344Z,69.95
2017-10-16T19:16:37.700Z,70.35
2017-10-16T19:19:06.816Z,70.41
2017-10-16T19:21:35.260Z,69.93
2017-10-16T19:24:03.653Z,70.49
2017-10-16T19:26:32.785Z,70.18
2017-10-16T19:29:01.934Z,70.57
2017-10-16T19:31:31.060Z,70.42
2017-10-16T19:33:59.434Z,70.76
2017-10-16T19:36:27.827Z,71.23
2017-10-16T19:38:56.192Z,71.57
2017-10-16T19:41:25.418Z,71.24
2017-10-16T19:43:53.958Z,71.43
2017-10-16T19:46:23.131Z,71.22
2017-10-16T19:48:51.486Z,70.95
2017-10-16T19:51:19.969Z,70.69
2017-10-16T19:53:48.317Z,70.79
2017-10-16T19:56:16.648Z,71.07
2017-10-16T19:58:45.815Z,70.38
2017-10-16T20:01:14.228Z,69.90
2017-10-16T20:03:42.597Z,70.54
2017-10-16T20:06:11.036Z,70.64
2017-10-16T20:08:40.179Z,71.06
2017-10-16T20:11:08.566Z,70.86
2017-10-16T20:13:36.937Z,71.33
2017-10-16T20:16:05.312Z,71.77
2017-10-16T20:18:33.650Z,71.11
2017-10-16T20:21:02.297Z,71.19
2017-10-16T20:23:30.741Z,70.30
2017-10-16T20:25:59.082Z,70.39
2017-10-16T20:28:28.425Z,70.01
2017-10-16T20:30:56.771Z,69.65
2017-10-16T20:33:26.173Z,69.93
2017-10-16T20:35:54.549Z,69.29
2017-10-16T20:38:22.914Z,69.60
2017-10-16T20:40:51.294Z,70.12
2017-10-16T20:43:19.873Z,70.08
2017-10-16T20:45:48.996Z,70.00
2017-10-16T20:48:17.371Z,70.52
2017-10-16T20:50:45.906Z,69.91
2017-10-16T20:53:14.262Z,69.84
2017-10-16T20:55:42.593Z,69.41
2017-10-16T20:58:10.987Z,69.11
2017-10-16T21:00:39.353Z,69.39
2017-10-16T21:03:08.453Z,68.90
2017-10-16T21:05:37.584Z,69.40
2017-10-16T21:08:05.960Z,69.07
2017-10-16T21:10:35.083Z,68.81
2017-10-16T21:13:03.813Z,69.80
2017-10-16T21:15:32.194Z,69.17
2017-10-16T21:18:00.564Z,69.18
2017-10-16T21:20:28.939Z,69.08
2017-10-16T21:22:58.138Z,68.98
2017-10-16T21:25:27.250Z,69.57
2017-10-16T21:27:55.656Z,70.31
2017-10-16T21:30:24.009Z,70.14
2017-10-16T21:32:52.387Z,70.18
2017-10-16T21:35:20.953Z,69.67
2017-10-16T21:37:49.323Z,69.58
2017-10-16T21:40:17.677Z,69.34
2017-10-16T21:42:46.706Z,69.38
2017-10-16T21:45:16.770Z,68.82
2017-10-16T21:47:45.105Z,69.22
2017-10-16T21:50:14.230Z,68.48
2017-10-16T21:52:42.581Z,68.13
2017-10-16T21:55:11.719Z,68.00
2017-10-16T21:57:40.604Z,68.25
2017-10-16T22:00:08.957Z,68.46
2017-10-16T22:02:38.083Z,68.09
2017-10-16T22:05:07.244Z,67.78
2017-10-16T22:07:35.598Z,67.73
2017-10-16T22:10:04.275Z,67.00
2017-10-16T22:12:32.662Z,67.26
2017-10-16T22:15:01.043Z,66.93
2017-10-16T22:17:29.403Z,66.98
2017-10-16T22:19:58.095Z,66.50
2017-10-16T22:22:26.436Z,66.39
2017-10-16T22:24:54.802Z,66.30
2017-10-16T22:27:24.560Z,65.81
2017-10-16T22:29:52.897Z,65.62
2017-10-16T22:32:21.271Z,65.50
2017-10-16T22:34:50.422Z,65.11
2017-10-16T22:37:18.786Z,64.92
2017-10-16T22:39:47.142Z,64.70
2017-10-16T22:42:15.583Z,64.74
2017-10-16T22:44:43.946Z,64.00
2017-10-16T22:47:12.318Z,63.41
2017-10-16T22:49:40.693Z,63.42
2017-10-16T22:52:09.024Z,63.35
2017-10-16T22:54:47.314Z,62.84
2017-10-16T22:57:15.692Z,62.84
2017-10-16T22:59:44.829Z,62.87
2017-10-16T23:02:13.334Z,62.52
2017-10-16T23:04:42.444Z,62.24
2017-10-16T23:07:10.835Z,62.65
2017-10-16T23:09:39.236Z,63.17
2017-10-16T23:12:08.360Z,62.74
2017-10-16T23:14:36.716Z,62.69
2017-10-16T23:17:05.852Z,62.43
2017-10-16T23:19:34.210Z,62.48
2017-10-16T23:22:02.555Z,62.62
2017-10-16T23:24:31.020Z,62.35
2017-10-16T23:26:59.686Z,62.63
2017-10-16T23:29:28.040Z,62.59
2017-10-16T23:31:56.400Z,62.50
2017-10-16T23:34:25.562Z,62.75
2017-10-16T23:36:53.898Z,63.06
2017-10-16T23:39:22.261Z,63.38
2017-10-16T23:41:51.370Z,63.49
2017-10-16T23:44:19.704Z,63.08
2017-10-16T23:46:48.228Z,63.30
2017-10-16T23:49:16.550Z,63.51
2017-10-16T23:51:44.890Z,64.08
2017-10-16T23:54:13.257Z,63.86
2017-10-16T23:56:42.358Z,63.03
2017-10-16T23:59:10.702Z,63.29
